sensor_id;sensor_type;location;lat;lon;timestamp;temperature;humidity
75685;HTU21D;64298;46.050;38.164;2022-11-15T00:01:25;5.96;76.09
75685;HTU21D;64298;46.050;38.164;2022-11-15T00:04:10;5.94;76.11
75685;HTU21D;64298;46.050;38.164;2022-11-15T00:06:54;5.94;76.13
75685;HTU21D;64298;46.050;38.164;2022-11-15T00:09:39;5.95;76.12
75685;HTU21D;64298;46.050;38.164;2022-11-15T00:12:23;5.94;76.15
75685;HTU21D;64298;46.050;38.164;2022-11-15T00:15:08;5.93;76.14
75685;HTU21D;64298;46.050;38.164;2022-11-15T00:17:52;5.91;76.08
75685;HTU21D;64298;46.050;38.164;2022-11-15T00:20:36;5.85;76.05
75685;HTU21D;64298;46.050;38.164;2022-11-15T00:23:21;5.81;76.14
75685;HTU21D;64298;46.050;38.164;2022-11-15T00:26:06;5.78;76.12
75685;HTU21D;64298;46.050;38.164;2022-11-15T00:28:54;5.76;76.16
75685;HTU21D;64298;46.050;38.164;2022-11-15T00:31:38;5.74;76.18
75685;HTU21D;64298;46.050;38.164;2022-11-15T00:34:23;5.70;76.15
75685;HTU21D;64298;46.050;38.164;2022-11-15T00:37:07;5.67;76.14
75685;HTU21D;64298;46.050;38.164;2022-11-15T00:39:52;5.64;76.15
75685;HTU21D;64298;46.050;38.164;2022-11-15T00:42:37;5.57;76.09
75685;HTU21D;64298;46.050;38.164;2022-11-15T00:45:22;5.53;76.18
75685;HTU21D;64298;46.050;38.164;2022-11-15T00:48:07;5.50;76.21
75685;HTU21D;64298;46.050;38.164;2022-11-15T00:50:52;5.48;76.23
75685;HTU21D;64298;46.050;38.164;2022-11-15T00:53:36;5.46;76.25
75685;HTU21D;64298;46.050;38.164;2022-11-15T00:56:21;5.40;76.28
75685;HTU21D;64298;46.050;38.164;2022-11-15T00:59:05;5.37;76.30
75685;HTU21D;64298;46.050;38.164;2022-11-15T01:01:50;5.35;76.36
75685;HTU21D;64298;46.050;38.164;2022-11-15T01:04:34;5.33;76.34
75685;HTU21D;64298;46.050;38.164;2022-11-15T01:07:19;5.30;76.37
75685;HTU21D;64298;46.050;38.164;2022-11-15T01:10:04;5.28;76.43
75685;HTU21D;64298;46.050;38.164;2022-11-15T01:12:49;5.25;76.40
75685;HTU21D;64298;46.050;38.164;2022-11-15T01:15:33;5.23;76.39
75685;HTU21D;64298;46.050;38.164;2022-11-15T01:18:18;5.20;76.41
75685;HTU21D;64298;46.050;38.164;2022-11-15T01:21:08;5.18;76.52
75685;HTU21D;64298;46.050;38.164;2022-11-15T01:23:54;5.17;76.59
75685;HTU21D;64298;46.050;38.164;2022-11-15T01:26:39;5.21;76.61
75685;HTU21D;64298;46.050;38.164;2022-11-15T01:29:23;5.17;76.65
75685;HTU21D;64298;46.050;38.164;2022-11-15T01:32:08;5.12;76.84
75685;HTU21D;64298;46.050;38.164;2022-11-15T01:34:53;5.10;76.93
75685;HTU21D;64298;46.050;38.164;2022-11-15T01:37:37;5.13;77.02
75685;HTU21D;64298;46.050;38.164;2022-11-15T01:40:22;5.15;77.10
75685;HTU21D;64298;46.050;38.164;2022-11-15T01:46:25;5.17;77.55
75685;HTU21D;64298;46.050;38.164;2022-11-15T01:49:22;5.18;77.61
75685;HTU21D;64298;46.050;38.164;2022-11-15T01:52:12;5.20;77.65
75685;HTU21D;64298;46.050;38.164;2022-11-15T01:55:09;5.20;77.84
75685;HTU21D;64298;46.050;38.164;2022-11-15T01:57:58;5.21;77.92
75685;HTU21D;64298;46.050;38.164;2022-11-15T02:00:43;5.21;77.99
75685;HTU21D;64298;46.050;38.164;2022-11-15T02:03:38;5.20;78.13
75685;HTU21D;64298;46.050;38.164;2022-11-15T02:06:23;5.21;78.15
75685;HTU21D;64298;46.050;38.164;2022-11-15T02:09:09;5.21;78.24
75685;HTU21D;64298;46.050;38.164;2022-11-15T02:11:54;5.22;78.26
75685;HTU21D;64298;46.050;38.164;2022-11-15T02:14:43;5.21;78.34
75685;HTU21D;64298;46.050;38.164;2022-11-15T02:17:48;5.21;78.32
75685;HTU21D;64298;46.050;38.164;2022-11-15T02:20:49;5.21;78.40
75685;HTU21D;64298;46.050;38.164;2022-11-15T02:33:14;5.10;78.52
75685;HTU21D;64298;46.050;38.164;2022-11-15T02:39:34;5.05;78.68
75685;HTU21D;64298;46.050;38.164;2022-11-15T02:42:25;5.05;78.72
75685;HTU21D;64298;46.050;38.164;2022-11-15T02:45:33;5.04;78.85
75685;HTU21D;64298;46.050;38.164;2022-11-15T02:48:21;5.05;78.87
75685;HTU21D;64298;46.050;38.164;2022-11-15T02:51:06;5.05;78.81
75685;HTU21D;64298;46.050;38.164;2022-11-15T02:53:51;5.06;78.88
75685;HTU21D;64298;46.050;38.164;2022-11-15T02:56:36;5.07;78.91
75685;HTU21D;64298;46.050;38.164;2022-11-15T03:02:47;5.03;78.98
75685;HTU21D;64298;46.050;38.164;2022-11-15T03:08:54;4.98;79.09
75685;HTU21D;64298;46.050;38.164;2022-11-15T03:11:46;4.98;79.07
75685;HTU21D;64298;46.050;38.164;2022-11-15T03:15:18;4.94;79.07
75685;HTU21D;64298;46.050;38.164;2022-11-15T03:18:06;4.94;79.01
75685;HTU21D;64298;46.050;38.164;2022-11-15T03:20:53;4.95;79.08
75685;HTU21D;64298;46.050;38.164;2022-11-15T03:23:39;4.94;79.05
75685;HTU21D;64298;46.050;38.164;2022-11-15T03:26:25;4.94;79.02
75685;HTU21D;64298;46.050;38.164;2022-11-15T03:29:21;4.94;79.14
75685;HTU21D;64298;46.050;38.164;2022-11-15T03:32:11;4.92;79.08
75685;HTU21D;64298;46.050;38.164;2022-11-15T03:34:57;4.91;79.06
75685;HTU21D;64298;46.050;38.164;2022-11-15T03:40:52;4.84;79.05
75685;HTU21D;64298;46.050;38.164;2022-11-15T03:43:55;4.79;79.20
75685;HTU21D;64298;46.050;38.164;2022-11-15T03:50:09;4.75;79.22
75685;HTU21D;64298;46.050;38.164;2022-11-15T03:52:55;4.73;79.17
75685;HTU21D;64298;46.050;38.164;2022-11-15T03:55:41;4.72;79.14
75685;HTU21D;64298;46.050;38.164;2022-11-15T03:58:25;4.68;79.11
75685;HTU21D;64298;46.050;38.164;2022-11-15T04:01:10;4.65;78.98
75685;HTU21D;64298;46.050;38.164;2022-11-15T04:03:55;4.63;78.88
75685;HTU21D;64298;46.050;38.164;2022-11-15T04:06:39;4.60;78.56
75685;HTU21D;64298;46.050;38.164;2022-11-15T04:09:24;4.57;78.56
75685;HTU21D;64298;46.050;38.164;2022-11-15T04:12:08;4.53;78.37
75685;HTU21D;64298;46.050;38.164;2022-11-15T04:14:53;4.52;78.30
75685;HTU21D;64298;46.050;38.164;2022-11-15T04:17:56;4.50;78.09
75685;HTU21D;64298;46.050;38.164;2022-11-15T04:20:40;4.48;78.04
75685;HTU21D;64298;46.050;38.164;2022-11-15T04:23:43;4.48;77.89
75685;HTU21D;64298;46.050;38.164;2022-11-15T04:26:46;4.48;77.60
75685;HTU21D;64298;46.050;38.164;2022-11-15T04:29:30;4.43;76.96
75685;HTU21D;64298;46.050;38.164;2022-11-15T04:32:18;4.41;77.06
75685;HTU21D;64298;46.050;38.164;2022-11-15T04:35:03;4.42;76.97
75685;HTU21D;64298;46.050;38.164;2022-11-15T04:37:47;4.41;76.89
75685;HTU21D;64298;46.050;38.164;2022-11-15T04:40:32;4.38;76.81
75685;HTU21D;64298;46.050;38.164;2022-11-15T04:43:16;4.37;76.46
75685;HTU21D;64298;46.050;38.164;2022-11-15T04:46:01;4.35;76.48
75685;HTU21D;64298;46.050;38.164;2022-11-15T04:48:45;4.36;76.25
75685;HTU21D;64298;46.050;38.164;2022-11-15T04:51:30;4.35;76.15
75685;HTU21D;64298;46.050;38.164;2022-11-15T04:54:14;4.37;76.15
75685;HTU21D;64298;46.050;38.164;2022-11-15T04:56:59;4.37;75.92
75685;HTU21D;64298;46.050;38.164;2022-11-15T04:59:43;4.37;75.68
75685;HTU21D;64298;46.050;38.164;2022-11-15T05:02:28;4.37;75.60
75685;HTU21D;64298;46.050;38.164;2022-11-15T05:05:32;4.38;75.35
75685;HTU21D;64298;46.050;38.164;2022-11-15T05:08:16;4.41;75.39
75685;HTU21D;64298;46.050;38.164;2022-11-15T05:11:01;4.43;75.16
75685;HTU21D;64298;46.050;38.164;2022-11-15T05:13:46;4.45;74.97
75685;HTU21D;64298;46.050;38.164;2022-11-15T05:16:30;4.47;74.98
75685;HTU21D;64298;46.050;38.164;2022-11-15T05:19:15;4.50;74.95
75685;HTU21D;64298;46.050;38.164;2022-11-15T05:21:59;4.52;74.83
75685;HTU21D;64298;46.050;38.164;2022-11-15T05:24:44;4.56;74.53
75685;HTU21D;64298;46.050;38.164;2022-11-15T05:27:28;4.59;73.93
75685;HTU21D;64298;46.050;38.164;2022-11-15T05:30:13;4.62;73.85
75685;HTU21D;64298;46.050;38.164;2022-11-15T05:32:58;4.63;73.68
75685;HTU21D;64298;46.050;38.164;2022-11-15T05:35:46;4.67;73.52
75685;HTU21D;64298;46.050;38.164;2022-11-15T05:38:33;4.72;73.67
75685;HTU21D;64298;46.050;38.164;2022-11-15T05:41:20;4.77;73.61
75685;HTU21D;64298;46.050;38.164;2022-11-15T05:44:08;4.81;73.35
75685;HTU21D;64298;46.050;38.164;2022-11-15T05:46:55;4.83;72.83
75685;HTU21D;64298;46.050;38.164;2022-11-15T05:49:39;4.87;72.72
75685;HTU21D;64298;46.050;38.164;2022-11-15T05:52:28;4.86;72.62
75685;HTU21D;64298;46.050;38.164;2022-11-15T05:55:14;4.90;72.73
75685;HTU21D;64298;46.050;38.164;2022-11-15T05:58:00;4.95;72.79
75685;HTU21D;64298;46.050;38.164;2022-11-15T06:00:45;5.03;72.73
75685;HTU21D;64298;46.050;38.164;2022-11-15T06:03:30;5.12;72.56
75685;HTU21D;64298;46.050;38.164;2022-11-15T06:06:14;5.18;72.33
75685;HTU21D;64298;46.050;38.164;2022-11-15T06:08:59;5.28;72.38
75685;HTU21D;64298;46.050;38.164;2022-11-15T06:11:43;5.39;72.23
75685;HTU21D;64298;46.050;38.164;2022-11-15T06:14:28;5.48;72.03
75685;HTU21D;64298;46.050;38.164;2022-11-15T06:17:12;5.56;71.80
75685;HTU21D;64298;46.050;38.164;2022-11-15T06:19:57;5.68;71.78
75685;HTU21D;64298;46.050;38.164;2022-11-15T06:22:41;5.76;71.47
75685;HTU21D;64298;46.050;38.164;2022-11-15T06:25:27;5.83;71.12
75685;HTU21D;64298;46.050;38.164;2022-11-15T06:28:12;5.94;71.16
75685;HTU21D;64298;46.050;38.164;2022-11-15T06:31:05;6.00;70.62
75685;HTU21D;64298;46.050;38.164;2022-11-15T06:33:49;6.09;70.39
75685;HTU21D;64298;46.050;38.164;2022-11-15T06:36:35;6.19;69.81
75685;HTU21D;64298;46.050;38.164;2022-11-15T06:39:20;6.28;69.67
75685;HTU21D;64298;46.050;38.164;2022-11-15T06:42:04;6.39;69.61
75685;HTU21D;64298;46.050;38.164;2022-11-15T06:44:49;6.49;69.13
75685;HTU21D;64298;46.050;38.164;2022-11-15T06:47:33;6.60;69.11
75685;HTU21D;64298;46.050;38.164;2022-11-15T06:50:18;6.66;67.14
75685;HTU21D;64298;46.050;38.164;2022-11-15T06:53:03;6.73;67.97
75685;HTU21D;64298;46.050;38.164;2022-11-15T06:55:48;6.85;66.87
75685;HTU21D;64298;46.050;38.164;2022-11-15T06:58:33;6.96;66.96
75685;HTU21D;64298;46.050;38.164;2022-11-15T07:01:18;7.08;65.94
75685;HTU21D;64298;46.050;38.164;2022-11-15T07:04:02;7.16;65.40
75685;HTU21D;64298;46.050;38.164;2022-11-15T07:06:47;7.26;66.00
75685;HTU21D;64298;46.050;38.164;2022-11-15T07:09:32;7.32;65.96
75685;HTU21D;64298;46.050;38.164;2022-11-15T07:12:17;7.31;65.54
75685;HTU21D;64298;46.050;38.164;2022-11-15T07:15:01;7.28;65.15
75685;HTU21D;64298;46.050;38.164;2022-11-15T07:17:46;7.31;65.28
75685;HTU21D;64298;46.050;38.164;2022-11-15T07:20:30;7.41;64.81
75685;HTU21D;64298;46.050;38.164;2022-11-15T07:23:14;7.46;64.03
75685;HTU21D;64298;46.050;38.164;2022-11-15T07:25:59;7.53;63.69
75685;HTU21D;64298;46.050;38.164;2022-11-15T07:28:43;7.61;64.09
75685;HTU21D;64298;46.050;38.164;2022-11-15T07:31:28;7.74;64.05
75685;HTU21D;64298;46.050;38.164;2022-11-15T07:34:12;7.79;63.11
75685;HTU21D;64298;46.050;38.164;2022-11-15T07:36:57;7.86;63.15
75685;HTU21D;64298;46.050;38.164;2022-11-15T07:39:41;7.90;62.28
75685;HTU21D;64298;46.050;38.164;2022-11-15T07:42:26;8.00;62.78
75685;HTU21D;64298;46.050;38.164;2022-11-15T07:45:29;8.01;62.99
75685;HTU21D;64298;46.050;38.164;2022-11-15T07:48:14;8.08;63.17
75685;HTU21D;64298;46.050;38.164;2022-11-15T07:50:58;8.13;61.86
75685;HTU21D;64298;46.050;38.164;2022-11-15T07:53:43;8.16;62.02
75685;HTU21D;64298;46.050;38.164;2022-11-15T07:56:28;8.23;60.34
75685;HTU21D;64298;46.050;38.164;2022-11-15T07:59:12;8.22;60.90
75685;HTU21D;64298;46.050;38.164;2022-11-15T08:01:56;8.17;61.14
75685;HTU21D;64298;46.050;38.164;2022-11-15T08:04:41;8.21;62.09
75685;HTU21D;64298;46.050;38.164;2022-11-15T08:07:28;8.36;60.86
75685;HTU21D;64298;46.050;38.164;2022-11-15T08:10:13;8.49;60.96
75685;HTU21D;64298;46.050;38.164;2022-11-15T08:12:58;8.64;61.12
75685;HTU21D;64298;46.050;38.164;2022-11-15T08:15:43;8.80;60.87
75685;HTU21D;64298;46.050;38.164;2022-11-15T08:18:28;8.86;60.25
75685;HTU21D;64298;46.050;38.164;2022-11-15T08:21:17;8.86;60.39
75685;HTU21D;64298;46.050;38.164;2022-11-15T08:24:02;8.83;60.82
75685;HTU21D;64298;46.050;38.164;2022-11-15T08:26:46;8.79;60.67
75685;HTU21D;64298;46.050;38.164;2022-11-15T08:29:30;8.72;60.53
75685;HTU21D;64298;46.050;38.164;2022-11-15T08:32:15;8.66;61.09
75685;HTU21D;64298;46.050;38.164;2022-11-15T08:34:59;8.71;60.93
75685;HTU21D;64298;46.050;38.164;2022-11-15T08:37:44;8.77;60.86
75685;HTU21D;64298;46.050;38.164;2022-11-15T08:40:28;8.83;60.32
75685;HTU21D;64298;46.050;38.164;2022-11-15T08:43:13;8.97;60.34
75685;HTU21D;64298;46.050;38.164;2022-11-15T08:45:57;9.14;60.23
75685;HTU21D;64298;46.050;38.164;2022-11-15T08:48:42;9.30;59.66
75685;HTU21D;64298;46.050;38.164;2022-11-15T08:51:27;9.37;59.64
75685;HTU21D;64298;46.050;38.164;2022-11-15T08:54:11;9.48;59.15
75685;HTU21D;64298;46.050;38.164;2022-11-15T08:56:56;9.54;59.01
75685;HTU21D;64298;46.050;38.164;2022-11-15T08:59:40;9.66;58.90
75685;HTU21D;64298;46.050;38.164;2022-11-15T09:02:25;9.77;58.37
75685;HTU21D;64298;46.050;38.164;2022-11-15T09:05:09;9.83;58.06
75685;HTU21D;64298;46.050;38.164;2022-11-15T09:07:54;9.92;58.39
75685;HTU21D;64298;46.050;38.164;2022-11-15T09:10:39;9.99;57.93
75685;HTU21D;64298;46.050;38.164;2022-11-15T09:13:23;10.06;57.40
75685;HTU21D;64298;46.050;38.164;2022-11-15T09:16:08;10.04;56.11
75685;HTU21D;64298;46.050;38.164;2022-11-15T09:18:53;10.05;57.43
75685;HTU21D;64298;46.050;38.164;2022-11-15T09:21:38;10.13;57.40
75685;HTU21D;64298;46.050;38.164;2022-11-15T09:24:23;10.23;57.03
75685;HTU21D;64298;46.050;38.164;2022-11-15T09:27:07;10.34;56.82
75685;HTU21D;64298;46.050;38.164;2022-11-15T09:29:52;10.39;56.35
75685;HTU21D;64298;46.050;38.164;2022-11-15T09:32:36;10.49;56.54
75685;HTU21D;64298;46.050;38.164;2022-11-15T09:35:21;10.58;55.96
75685;HTU21D;64298;46.050;38.164;2022-11-15T09:38:05;10.65;56.21
75685;HTU21D;64298;46.050;38.164;2022-11-15T09:40:53;10.72;55.90
75685;HTU21D;64298;46.050;38.164;2022-11-15T09:47:03;10.78;55.16
75685;HTU21D;64298;46.050;38.164;2022-11-15T09:50:06;10.77;55.02
75685;HTU21D;64298;46.050;38.164;2022-11-15T09:52:36;10.74;55.72
75685;HTU21D;64298;46.050;38.164;2022-11-15T09:55:05;10.67;54.56
75685;HTU21D;64298;46.050;38.164;2022-11-15T09:58:02;10.57;54.81
75685;HTU21D;64298;46.050;38.164;2022-11-15T10:00:34;10.65;54.94
75685;HTU21D;64298;46.050;38.164;2022-11-15T10:03:14;10.65;53.52
75685;HTU21D;64298;46.050;38.164;2022-11-15T10:05:46;10.58;54.10
75685;HTU21D;64298;46.050;38.164;2022-11-15T10:08:28;10.66;53.98
75685;HTU21D;64298;46.050;38.164;2022-11-15T10:11:14;10.70;53.73
75685;HTU21D;64298;46.050;38.164;2022-11-15T10:13:43;10.75;54.15
75685;HTU21D;64298;46.050;38.164;2022-11-15T10:24:28;10.87;53.45
75685;HTU21D;64298;46.050;38.164;2022-11-15T10:26:57;10.92;53.51
75685;HTU21D;64298;46.050;38.164;2022-11-15T10:29:24;10.98;53.33
75685;HTU21D;64298;46.050;38.164;2022-11-15T10:31:51;11.05;53.41
75685;HTU21D;64298;46.050;38.164;2022-11-15T10:34:22;11.18;53.24
75685;HTU21D;64298;46.050;38.164;2022-11-15T10:36:59;11.28;52.94
75685;HTU21D;64298;46.050;38.164;2022-11-15T10:39:26;11.31;52.98
75685;HTU21D;64298;46.050;38.164;2022-11-15T10:41:52;11.37;53.01
75685;HTU21D;64298;46.050;38.164;2022-11-15T10:44:27;11.39;52.28
75685;HTU21D;64298;46.050;38.164;2022-11-15T10:49:24;11.30;52.17
75685;HTU21D;64298;46.050;38.164;2022-11-15T10:57:17;11.30;52.62
75685;HTU21D;64298;46.050;38.164;2022-11-15T10:59:52;11.33;52.13
75685;HTU21D;64298;46.050;38.164;2022-11-15T11:05:31;11.41;52.49
75685;HTU21D;64298;46.050;38.164;2022-11-15T11:08:05;11.47;52.59
75685;HTU21D;64298;46.050;38.164;2022-11-15T11:11:01;11.52;52.16
75685;HTU21D;64298;46.050;38.164;2022-11-15T11:13:29;11.44;51.80
75685;HTU21D;64298;46.050;38.164;2022-11-15T11:16:27;11.41;52.11
75685;HTU21D;64298;46.050;38.164;2022-11-15T11:19:31;11.40;52.02
75685;HTU21D;64298;46.050;38.164;2022-11-15T11:24:43;11.37;51.70
75685;HTU21D;64298;46.050;38.164;2022-11-15T11:29:58;11.29;51.48
75685;HTU21D;64298;46.050;38.164;2022-11-15T11:35:32;11.20;52.34
75685;HTU21D;64298;46.050;38.164;2022-11-15T11:44:34;11.11;52.84
75685;HTU21D;64298;46.050;38.164;2022-11-15T11:52:26;10.85;52.46
75685;HTU21D;64298;46.050;38.164;2022-11-15T11:55:16;10.80;52.59
75685;HTU21D;64298;46.050;38.164;2022-11-15T12:00:24;10.68;52.17
75685;HTU21D;64298;46.050;38.164;2022-11-15T12:03:02;10.60;52.33
75685;HTU21D;64298;46.050;38.164;2022-11-15T12:05:35;10.53;52.64
75685;HTU21D;64298;46.050;38.164;2022-11-15T12:08:35;10.52;52.47
75685;HTU21D;64298;46.050;38.164;2022-11-15T12:11:14;10.43;52.62
75685;HTU21D;64298;46.050;38.164;2022-11-15T12:14:05;10.40;52.76
75685;HTU21D;64298;46.050;38.164;2022-11-15T12:16:34;10.36;52.90
75685;HTU21D;64298;46.050;38.164;2022-11-15T12:19:02;10.28;52.46
75685;HTU21D;64298;46.050;38.164;2022-11-15T12:21:37;10.14;52.43
75685;HTU21D;64298;46.050;38.164;2022-11-15T12:26:42;10.07;52.83
75685;HTU21D;64298;46.050;38.164;2022-11-15T12:29:23;10.00;52.77
75685;HTU21D;64298;46.050;38.164;2022-11-15T12:31:54;9.97;52.89
75685;HTU21D;64298;46.050;38.164;2022-11-15T12:36:49;9.93;53.19
75685;HTU21D;64298;46.050;38.164;2022-11-15T12:39:17;9.92;53.42
75685;HTU21D;64298;46.050;38.164;2022-11-15T13:02:19;9.60;53.88
75685;HTU21D;64298;46.050;38.164;2022-11-15T13:04:47;9.60;54.10
75685;HTU21D;64298;46.050;38.164;2022-11-15T13:12:59;9.49;54.28
75685;HTU21D;64298;46.050;38.164;2022-11-15T13:15:35;9.41;54.29
75685;HTU21D;64298;46.050;38.164;2022-11-15T13:20:54;9.30;54.47
75685;HTU21D;64298;46.050;38.164;2022-11-15T13:23:21;9.24;54.50
75685;HTU21D;64298;46.050;38.164;2022-11-15T13:33:58;9.05;54.87
75685;HTU21D;64298;46.050;38.164;2022-11-15T13:36:28;8.96;55.07
75685;HTU21D;64298;46.050;38.164;2022-11-15T13:39:02;8.90;55.21
75685;HTU21D;64298;46.050;38.164;2022-11-15T13:41:34;8.83;55.45
75685;HTU21D;64298;46.050;38.164;2022-11-15T13:44:02;8.78;55.66
75685;HTU21D;64298;46.050;38.164;2022-11-15T13:46:30;8.75;55.84
75685;HTU21D;64298;46.050;38.164;2022-11-15T13:48:59;8.68;55.87
75685;HTU21D;64298;46.050;38.164;2022-11-15T13:51:30;8.62;56.08
75685;HTU21D;64298;46.050;38.164;2022-11-15T13:56:53;8.52;56.45
75685;HTU21D;64298;46.050;38.164;2022-11-15T13:59:30;8.47;56.61
75685;HTU21D;64298;46.050;38.164;2022-11-15T14:02:01;8.43;56.74
75685;HTU21D;64298;46.050;38.164;2022-11-15T14:04:28;8.37;56.92
75685;HTU21D;64298;46.050;38.164;2022-11-15T14:07:20;8.33;57.06
75685;HTU21D;64298;46.050;38.164;2022-11-15T14:09:46;8.29;57.16
75685;HTU21D;64298;46.050;38.164;2022-11-15T14:12:32;8.22;57.39
75685;HTU21D;64298;46.050;38.164;2022-11-15T14:15:00;8.19;57.48
75685;HTU21D;64298;46.050;38.164;2022-11-15T14:19:56;8.07;57.76
75685;HTU21D;64298;46.050;38.164;2022-11-15T14:22:25;8.04;57.92
75685;HTU21D;64298;46.050;38.164;2022-11-15T14:25:17;8.02;58.13
75685;HTU21D;64298;46.050;38.164;2022-11-15T14:30:46;7.92;58.31
75685;HTU21D;64298;46.050;38.164;2022-11-15T14:33:23;7.86;58.50
75685;HTU21D;64298;46.050;38.164;2022-11-15T14:35:51;7.84;58.59
75685;HTU21D;64298;46.050;38.164;2022-11-15T14:38:18;7.82;58.72
75685;HTU21D;64298;46.050;38.164;2022-11-15T14:40:44;7.81;58.83
75685;HTU21D;64298;46.050;38.164;2022-11-15T14:43:11;7.78;58.92
75685;HTU21D;64298;46.050;38.164;2022-11-15T14:45:38;7.76;59.01
75685;HTU21D;64298;46.050;38.164;2022-11-15T14:48:04;7.75;59.09
75685;HTU21D;64298;46.050;38.164;2022-11-15T14:50:31;7.74;59.20
75685;HTU21D;64298;46.050;38.164;2022-11-15T14:52:58;7.74;59.22
75685;HTU21D;64298;46.050;38.164;2022-11-15T14:55:29;7.65;59.39
75685;HTU21D;64298;46.050;38.164;2022-11-15T14:57:58;7.61;59.59
75685;HTU21D;64298;46.050;38.164;2022-11-15T15:00:24;7.58;59.69
75685;HTU21D;64298;46.050;38.164;2022-11-15T15:02:53;7.59;59.77
75685;HTU21D;64298;46.050;38.164;2022-11-15T15:05:31;7.58;59.83
75685;HTU21D;64298;46.050;38.164;2022-11-15T15:08:16;7.56;59.84
75685;HTU21D;64298;46.050;38.164;2022-11-15T15:10:45;7.52;59.98
75685;HTU21D;64298;46.050;38.164;2022-11-15T15:13:19;7.47;60.12
75685;HTU21D;64298;46.050;38.164;2022-11-15T15:15:47;7.45;60.15
75685;HTU21D;64298;46.050;38.164;2022-11-15T15:18:13;7.41;60.25
75685;HTU21D;64298;46.050;38.164;2022-11-15T15:20:41;7.39;60.38
75685;HTU21D;64298;46.050;38.164;2022-11-15T15:23:18;7.37;60.42
75685;HTU21D;64298;46.050;38.164;2022-11-15T15:25:45;7.34;60.43
75685;HTU21D;64298;46.050;38.164;2022-11-15T15:28:12;7.29;60.51
75685;HTU21D;64298;46.050;38.164;2022-11-15T15:30:38;7.26;60.60
75685;HTU21D;64298;46.050;38.164;2022-11-15T15:33:04;7.25;60.65
75685;HTU21D;64298;46.050;38.164;2022-11-15T15:35:32;7.24;60.70
75685;HTU21D;64298;46.050;38.164;2022-11-15T15:37:59;7.20;60.70
75685;HTU21D;64298;46.050;38.164;2022-11-15T15:40:28;7.17;60.64
75685;HTU21D;64298;46.050;38.164;2022-11-15T15:42:54;7.14;60.73
75685;HTU21D;64298;46.050;38.164;2022-11-15T15:45:41;7.12;60.76
75685;HTU21D;64298;46.050;38.164;2022-11-15T15:48:15;7.09;60.84
75685;HTU21D;64298;46.050;38.164;2022-11-15T15:50:42;7.07;60.83
75685;HTU21D;64298;46.050;38.164;2022-11-15T15:53:09;7.03;60.83
75685;HTU21D;64298;46.050;38.164;2022-11-15T15:55:38;6.98;60.88
75685;HTU21D;64298;46.050;38.164;2022-11-15T15:58:05;6.98;60.91
75685;HTU21D;64298;46.050;38.164;2022-11-15T16:00:31;6.93;60.90
75685;HTU21D;64298;46.050;38.164;2022-11-15T16:02:59;6.93;61.00
75685;HTU21D;64298;46.050;38.164;2022-11-15T16:05:25;6.90;60.99
75685;HTU21D;64298;46.050;38.164;2022-11-15T16:07:51;6.88;61.07
75685;HTU21D;64298;46.050;38.164;2022-11-15T16:12:50;6.85;61.07
75685;HTU21D;64298;46.050;38.164;2022-11-15T16:15:17;6.80;61.12
75685;HTU21D;64298;46.050;38.164;2022-11-15T16:17:51;6.75;61.19
75685;HTU21D;64298;46.050;38.164;2022-11-15T16:22:46;6.68;61.22
75685;HTU21D;64298;46.050;38.164;2022-11-15T16:25:12;6.64;61.21
75685;HTU21D;64298;46.050;38.164;2022-11-15T16:27:38;6.58;61.25
75685;HTU21D;64298;46.050;38.164;2022-11-15T16:30:18;6.55;61.37
75685;HTU21D;64298;46.050;38.164;2022-11-15T16:32:45;6.53;61.39
75685;HTU21D;64298;46.050;38.164;2022-11-15T16:35:11;6.51;61.43
75685;HTU21D;64298;46.050;38.164;2022-11-15T16:37:41;6.48;61.47
75685;HTU21D;64298;46.050;38.164;2022-11-15T16:40:30;6.46;61.57
75685;HTU21D;64298;46.050;38.164;2022-11-15T16:42:57;6.42;61.46
75685;HTU21D;64298;46.050;38.164;2022-11-15T16:45:25;6.40;61.54
75685;HTU21D;64298;46.050;38.164;2022-11-15T16:47:54;6.38;61.59
75685;HTU21D;64298;46.050;38.164;2022-11-15T16:50:30;6.36;61.67
75685;HTU21D;64298;46.050;38.164;2022-11-15T16:53:16;6.34;61.72
75685;HTU21D;64298;46.050;38.164;2022-11-15T16:55:42;6.30;61.73
75685;HTU21D;64298;46.050;38.164;2022-11-15T16:58:08;6.27;61.81
75685;HTU21D;64298;46.050;38.164;2022-11-15T17:00:35;6.27;61.83
75685;HTU21D;64298;46.050;38.164;2022-11-15T17:03:01;6.25;61.79
75685;HTU21D;64298;46.050;38.164;2022-11-15T17:05:28;6.24;61.82
75685;HTU21D;64298;46.050;38.164;2022-11-15T17:07:54;6.23;61.85
75685;HTU21D;64298;46.050;38.164;2022-11-15T17:10:22;6.21;61.83
75685;HTU21D;64298;46.050;38.164;2022-11-15T17:12:49;6.15;61.86
75685;HTU21D;64298;46.050;38.164;2022-11-15T17:15:15;6.12;61.94
75685;HTU21D;64298;46.050;38.164;2022-11-15T17:17:41;6.10;62.02
75685;HTU21D;64298;46.050;38.164;2022-11-15T17:20:16;6.09;62.07
75685;HTU21D;64298;46.050;38.164;2022-11-15T17:22:42;6.11;61.96
75685;HTU21D;64298;46.050;38.164;2022-11-15T17:25:09;6.04;62.08
75685;HTU21D;64298;46.050;38.164;2022-11-15T17:27:35;5.96;62.21
75685;HTU21D;64298;46.050;38.164;2022-11-15T17:30:01;5.93;62.28
75685;HTU21D;64298;46.050;38.164;2022-11-15T17:32:27;5.91;62.34
75685;HTU21D;64298;46.050;38.164;2022-11-15T17:34:53;5.86;62.37
75685;HTU21D;64298;46.050;38.164;2022-11-15T17:37:19;5.85;62.44
75685;HTU21D;64298;46.050;38.164;2022-11-15T17:39:45;5.84;62.44
75685;HTU21D;64298;46.050;38.164;2022-11-15T17:42:11;5.83;62.51
75685;HTU21D;64298;46.050;38.164;2022-11-15T17:44:37;5.84;62.50
75685;HTU21D;64298;46.050;38.164;2022-11-15T17:47:03;5.83;62.53
75685;HTU21D;64298;46.050;38.164;2022-11-15T17:49:29;5.84;62.57
75685;HTU21D;64298;46.050;38.164;2022-11-15T17:51:55;5.83;62.57
75685;HTU21D;64298;46.050;38.164;2022-11-15T17:54:21;5.81;62.57
75685;HTU21D;64298;46.050;38.164;2022-11-15T17:56:47;5.80;62.57
75685;HTU21D;64298;46.050;38.164;2022-11-15T17:59:13;5.77;62.60
75685;HTU21D;64298;46.050;38.164;2022-11-15T18:01:39;5.75;62.65
75685;HTU21D;64298;46.050;38.164;2022-11-15T18:04:07;5.69;62.72
75685;HTU21D;64298;46.050;38.164;2022-11-15T18:06:35;5.67;62.75
75685;HTU21D;64298;46.050;38.164;2022-11-15T18:09:02;5.65;62.82
75685;HTU21D;64298;46.050;38.164;2022-11-15T18:11:31;5.63;62.86
75685;HTU21D;64298;46.050;38.164;2022-11-15T18:14:02;5.61;62.93
75685;HTU21D;64298;46.050;38.164;2022-11-15T18:16:31;5.59;63.01
75685;HTU21D;64298;46.050;38.164;2022-11-15T18:18:58;5.57;63.04
75685;HTU21D;64298;46.050;38.164;2022-11-15T18:21:30;5.55;63.12
75685;HTU21D;64298;46.050;38.164;2022-11-15T18:24:01;5.54;63.11
75685;HTU21D;64298;46.050;38.164;2022-11-15T18:26:28;5.50;63.16
75685;HTU21D;64298;46.050;38.164;2022-11-15T18:29:00;5.49;63.19
75685;HTU21D;64298;46.050;38.164;2022-11-15T18:31:28;5.46;63.17
75685;HTU21D;64298;46.050;38.164;2022-11-15T18:33:57;5.43;63.20
75685;HTU21D;64298;46.050;38.164;2022-11-15T18:36:26;5.42;63.19
75685;HTU21D;64298;46.050;38.164;2022-11-15T18:38:55;5.37;63.24
75685;HTU21D;64298;46.050;38.164;2022-11-15T18:41:22;5.34;63.27